Time;durP1;ratioP1;P1;durP2;ratioP2;P2;SDS_P1;SDS_P2;PMS_P1;PMS_P2;Temp;Humidity;BMP_temperature;BMP_pressure;BME280_temperature;BME280_humidity;BME280_pressure;Samples;Min_cycle;Max_cycle;Signal;HPM_P1;HPM_P2
2023/04/12 00:01:29;;;;;;;3.55;1.50;;;;;;;12.58;56.52;100514.06;5108470;28;20040;-66
2023/04/12 00:03:57;;;;;;;5.05;1.73;;;;;;;12.57;56.70;100511.63;5100015;28;20054;-66
2023/04/12 00:06:31;;;;;;;5.13;1.90;;;;;;;12.56;56.40;100497.31;5099833;28;20117;-66
2023/04/12 00:08:59;;;;;;;7.28;1.85;;;;;;;12.55;56.70;100494.88;5090154;28;20056;-66
2023/04/12 00:11:27;;;;;;;5.05;1.40;;;;;;;12.55;56.83;100481.41;5100850;28;20079;-66
2023/04/12 00:13:55;;;;;;;3.22;1.35;;;;;;;12.54;57.18;100480.56;5096860;28;20116;-66
2023/04/12 00:16:23;;;;;;;3.03;1.23;;;;;;;12.53;57.02;100467.34;5097639;28;20040;-66
2023/04/12 00:18:51;;;;;;;6.15;1.77;;;;;;;12.52;56.96;100463.00;5099884;28;20096;-66
2023/04/12 00:21:19;;;;;;;6.22;1.30;;;;;;;12.52;56.93;100471.09;5104149;28;20051;-66
2023/04/12 00:23:49;;;;;;;4.65;1.52;;;;;;;12.49;57.31;100455.41;5118214;28;20116;-67
2023/04/12 00:26:17;;;;;;;4.72;1.40;;;;;;;12.49;57.22;100455.41;5120246;28;20138;-66
2023/04/12 00:28:45;;;;;;;6.40;2.05;;;;;;;12.47;57.28;100435.97;5119927;28;20050;-67
2023/04/12 00:31:12;;;;;;;3.53;1.50;;;;;;;12.47;56.97;100426.00;5119561;28;20054;-66
2023/04/12 00:33:40;;;;;;;3.95;1.42;;;;;;;12.39;57.53;100410.25;5121089;28;20138;-65
2023/04/12 00:36:09;;;;;;;3.72;1.23;;;;;;;12.45;57.06;100419.22;5120159;28;20078;-65
2023/04/12 00:38:37;;;;;;;4.10;1.60;;;;;;;12.45;57.43;100405.75;5118841;28;20158;-65
2023/04/12 00:41:07;;;;;;;3.90;1.73;;;;;;;12.38;57.81;100387.06;5117424;28;20605;-66
2023/04/12 00:43:34;;;;;;;7.53;1.65;;;;;;;12.44;57.19;100396.03;5114680;28;20074;-66
2023/04/12 00:46:02;;;;;;;4.00;1.58;;;;;;;12.37;57.25;100380.03;5118368;28;20492;-66
2023/04/12 00:48:31;;;;;;;4.28;1.17;;;;;;;12.43;57.39;100384.44;5120211;28;20040;-66
2023/04/12 00:51:00;;;;;;;5.50;1.30;;;;;;;12.43;57.67;100378.22;5112070;28;20048;-64
2023/04/12 00:53:28;;;;;;;3.80;1.40;;;;;;;12.42;57.73;100376.59;5115161;28;20119;-66
2023/04/12 00:55:56;;;;;;;3.63;1.25;;;;;;;12.42;57.33;100363.13;5118669;28;20044;-65
2023/04/12 00:58:25;;;;;;;5.57;1.75;;;;;;;12.41;57.52;100351.53;5115996;28;20507;-65
2023/04/12 01:00:53;;;;;;;4.65;1.25;;;;;;;12.41;57.68;100338.06;5118430;28;20107;-66
2023/04/12 01:03:22;;;;;;;5.40;1.70;;;;;;;12.39;57.83;100334.78;5115132;28;20806;-66
2023/04/12 01:06:04;;;;;;;6.00;1.20;;;;;;;12.39;57.77;100324.00;5119816;28;20050;-66
2023/04/12 01:08:40;;;;;;;3.33;1.08;;;;;;;12.37;57.82;100321.56;5118453;28;20099;-66
2023/04/12 01:11:12;;;;;;;;;;;;;;;12.37;58.02;100312.66;5121020;28;20054;-67
2023/04/12 01:13:51;;;;;;;3.63;1.88;;;;;;;12.35;57.73;100306.69;5117036;28;20030;-66
2023/04/12 01:16:25;;;;;;;3.60;1.30;;;;;;;12.34;57.91;100292.41;5113159;28;20097;-66
2023/04/12 01:18:58;;;;;;;4.97;1.50;;;;;;;12.33;58.00;100290.78;5113631;28;20047;-66
2023/04/12 01:21:42;;;;;;;5.05;1.73;;;;;;;12.32;58.09;100274.88;5107181;28;20075;-66
2023/04/12 01:24:23;;;;;;;3.55;1.10;;;;;;;12.31;57.96;100267.84;5095401;28;20054;-66
2023/04/12 01:26:52;;;;;;;5.60;1.80;;;;;;;12.30;57.96;100268.91;5097699;28;20138;-66
2023/04/12 01:29:27;;;;;;;3.75;1.85;;;;;;;12.28;58.36;100249.47;5097932;28;20039;-65
2023/04/12 01:31:58;;;;;;;3.03;1.27;;;;;;;12.28;58.39;100239.50;5096537;28;20055;-66
2023/04/12 01:34:29;;;;;;;6.72;1.55;;;;;;;12.25;58.37;100237.31;5091968;28;20113;-66
2023/04/12 01:36:58;;;;;;;4.32;1.23;;;;;;;12.25;58.29;100242.69;5104973;28;20056;-66
2023/04/12 01:39:27;;;;;;;3.33;1.30;;;;;;;12.24;58.07;100227.59;5102382;28;20082;-66
2023/04/12 01:41:54;;;;;;;4.85;1.40;;;;;;;12.22;58.57;100213.56;5102389;28;20131;-66
2023/04/12 01:44:23;;;;;;;5.05;1.45;;;;;;;12.23;58.07;100214.38;5102352;28;20143;-66
2023/04/12 01:46:52;;;;;;;6.85;1.35;;;;;;;12.21;58.44;100205.72;5103960;28;20078;-67
2023/04/12 01:49:24;;;;;;;4.65;1.90;;;;;;;12.20;58.17;100194.13;5101557;28;20050;-66
2023/04/12 01:51:58;;;;;;;2.25;1.23;;;;;;;12.20;58.35;100188.75;5102915;28;20098;-67
2023/04/12 01:54:29;;;;;;;3.75;1.73;;;;;;;12.19;58.24;100189.00;5103099;28;20048;-66
2023/04/12 01:56:59;;;;;;;3.83;1.27;;;;;;;12.18;58.21;100179.28;5103177;28;20071;-66
2023/04/12 01:59:32;;;;;;;6.40;2.05;;;;;;;12.17;58.37;100169.56;5101672;28;20067;-66
2023/04/12 02:02:02;;;;;;;5.60;1.75;;;;;;;12.16;58.48;100165.25;5101902;28;20072;-66
2023/04/12 02:04:30;;;;;;;4.82;1.63;;;;;;;12.08;58.17;100144.16;5102814;28;20036;-66
2023/04/12 02:06:58;;;;;;;5.15;1.60;;;;;;;12.16;58.41;100149.09;5098859;28;20056;-65
2023/04/12 02:09:26;;;;;;;3.88;1.42;;;;;;;12.15;58.21;100142.88;5100748;28;20083;-66
2023/04/12 02:11:53;;;;;;;2.55;0.90;;;;;;;12.15;58.29;100142.06;5103599;28;20376;-65
2023/04/12 02:14:21;;;;;;;3.78;1.10;;;;;;;12.14;58.69;100132.34;5103417;28;20047;-66
2023/04/12 02:16:53;;;;;;;7.55;1.83;;;;;;;12.14;58.94;100133.16;5098123;28;20067;-66
2023/04/12 02:19:21;;;;;;;4.03;1.73;;;;;;;12.12;58.73;100118.34;5113026;28;20043;-66
2023/04/12 02:21:49;;;;;;;7.45;1.83;;;;;;;12.12;58.56;100111.09;5105418;28;20094;-67
2023/04/12 02:24:17;;;;;;;3.33;1.60;;;;;;;12.00;58.51;100086.97;5120674;28;20054;-66
2023/04/12 02:26:48;;;;;;;3.60;1.20;;;;;;;12.10;58.76;100093.56;5121254;28;20086;-66
2023/04/12 02:29:16;;;;;;;3.35;1.45;;;;;;;12.10;58.56;100091.66;5120259;28;20070;-66
2023/04/12 02:31:44;;;;;;;5.65;1.15;;;;;;;12.10;58.79;100085.47;5119573;28;20046;-66
2023/04/12 02:34:14;;;;;;;3.60;1.42;;;;;;;12.01;58.93;100072.44;5123124;28;20103;-66
2023/04/12 02:36:46;;;;;;;3.00;1.23;;;;;;;12.08;58.58;100074.94;5117717;28;20082;-65
2023/04/12 02:39:17;;;;;;;2.97;1.00;;;;;;;12.08;58.67;100064.16;5117804;28;20423;-65
2023/04/12 02:41:45;;;;;;;3.33;1.20;;;;;;;12.06;58.80;100058.22;5122627;28;20102;-67
2023/04/12 02:44:13;;;;;;;3.88;1.30;;;;;;;12.06;58.52;100052.84;5118626;28;20363;-66
2023/04/12 02:46:40;;;;;;;3.05;1.40;;;;;;;12.06;58.81;100044.75;5117663;28;20050;-66
2023/04/12 02:49:08;;;;;;;2.78;1.23;;;;;;;12.05;58.67;100040.44;5120650;28;20459;-66
2023/04/12 02:51:38;;;;;;;3.33;1.00;;;;;;;12.05;58.93;100029.66;5122457;28;20470;-65
2023/04/12 02:54:05;;;;;;;5.47;1.75;;;;;;;12.03;58.89;100027.22;5118214;28;20107;-65
2023/04/12 02:56:35;;;;;;;2.25;1.02;;;;;;;11.97;58.63;100008.56;5114810;28;20075;-65
2023/04/12 02:59:03;;;;;;;4.95;1.38;;;;;;;12.02;58.69;100009.44;5109846;28;20096;-65
2023/04/12 03:01:32;;;;;;;3.58;1.35;;;;;;;12.01;58.96;99993.53;5118782;28;20528;-65
2023/04/12 03:04:00;;;;;;;2.95;0.90;;;;;;;12.00;58.80;99992.72;5118482;28;20147;-66
2023/04/12 03:06:29;;;;;;;2.28;1.15;;;;;;;11.99;58.92;99980.31;5121791;28;20101;-66
2023/04/12 03:08:58;;;;;;;2.80;1.20;;;;;;;11.91;58.69;99972.69;5114028;28;20123;-66
2023/04/12 03:11:26;;;;;;;3.80;1.38;;;;;;;11.97;58.79;99979.75;5118655;28;20501;-66
2023/04/12 03:13:54;;;;;;;3.20;1.10;;;;;;;11.96;59.02;99974.63;5120037;28;20127;-66
2023/04/12 03:16:23;;;;;;;4.80;1.30;;;;;;;11.96;58.83;99971.94;5121884;28;20046;-66
2023/04/12 03:18:51;;;;;;;3.95;1.10;;;;;;;11.94;59.10;99958.72;5119085;28;20055;-65
2023/04/12 03:21:19;;;;;;;3.88;0.90;;;;;;;11.93;58.95;99967.03;5118143;28;20060;-65
2023/04/12 03:23:46;;;;;;;2.90;1.00;;;;;;;11.92;59.08;99954.66;5120096;28;20032;-65
2023/04/12 03:26:19;;;;;;;2.97;1.10;;;;;;;11.91;58.99;99953.84;5113040;28;20613;-64
2023/04/12 03:28:47;;;;;;;3.35;1.00;;;;;;;11.92;59.22;99949.25;5116596;28;20051;-66
2023/04/12 03:31:20;;;;;;;4.10;1.17;;;;;;;11.89;59.06;99934.44;5115648;28;20078;-66
2023/04/12 03:33:48;;;;;;;1.40;0.80;;;;;;;11.90;59.31;99922.59;5121731;28;20097;-66
2023/04/12 03:36:16;;;;;;;4.93;1.30;;;;;;;11.90;59.19;99921.78;5121094;28;20054;-65
2023/04/12 03:38:44;;;;;;;3.08;1.05;;;;;;;11.88;59.09;99919.34;5117913;28;20044;-66
2023/04/12 03:41:11;;;;;;;2.35;0.80;;;;;;;11.89;59.46;99915.59;5120644;28;20073;-67
2023/04/12 03:43:41;;;;;;;4.72;1.13;;;;;;;11.88;59.23;99910.44;5120673;28;20032;-66
2023/04/12 03:46:09;;;;;;;3.38;1.00;;;;;;;11.87;59.19;99912.31;5120959;28;20524;-69
2023/04/12 03:48:37;;;;;;;2.70;1.38;;;;;;;11.86;59.50;99907.19;5117776;28;20055;-67
2023/04/12 03:51:07;;;;;;;3.13;1.15;;;;;;;11.86;59.48;99901.81;5119503;28;20043;-66
2023/04/12 03:53:35;;;;;;;4.57;0.98;;;;;;;11.84;59.63;99895.88;5120234;28;20055;-66
2023/04/12 03:56:03;;;;;;;3.03;1.00;;;;;;;11.84;59.42;99894.00;5115802;28;20055;-66
2023/04/12 03:58:32;;;;;;;3.05;1.70;;;;;;;11.83;59.60;99894.25;5105274;28;20102;-66
2023/04/12 04:01:02;;;;;;;3.28;1.90;;;;;;;11.82;59.48;99887.22;5115439;28;20067;-67
2023/04/12 04:03:33;;;;;;;2.15;0.90;;;;;;;11.82;59.81;99876.47;5118672;28;20139;-67
2023/04/12 04:06:02;;;;;;;1.60;0.80;;;;;;;11.83;59.86;99883.47;5118087;28;20339;-66
2023/04/12 04:08:31;;;;;;;1.75;0.90;;;;;;;11.82;59.62;99877.28;5120433;28;20130;-67
2023/04/12 04:10:59;;;;;;;1.38;0.82;;;;;;;11.83;59.69;99872.69;5113871;28;20129;-66
2023/04/12 04:13:27;;;;;;;1.80;0.80;;;;;;;11.83;59.80;99862.75;5117023;28;20165;-65
2023/04/12 04:16:02;;;;;;;3.42;1.02;;;;;;;11.83;59.79;99859.25;5120974;28;20079;-66
2023/04/12 04:18:30;;;;;;;2.70;1.02;;;;;;;11.81;59.75;99854.13;5109364;28;20112;-66
2023/04/12 04:20:58;;;;;;;3.53;0.82;;;;;;;11.80;59.99;99852.50;5116247;28;20054;-66
2023/04/12 04:23:27;;;;;;;1.67;0.90;;;;;;;11.81;59.99;99851.41;5118618;28;20147;-66
2023/04/12 04:25:56;;;;;;;2.22;1.08;;;;;;;11.79;60.26;99848.16;5114765;28;20051;-66
2023/04/12 04:28:24;;;;;;;4.32;0.98;;;;;;;11.80;60.34;99846.28;5119277;28;20142;-67
2023/04/12 04:30:54;;;;;;;3.47;1.17;;;;;;;11.79;60.06;99836.59;5114623;28;20043;-67
2023/04/12 04:33:23;;;;;;;2.53;0.80;;;;;;;11.79;59.99;99831.22;5120013;28;20055;-67
2023/04/12 04:35:51;;;;;;;4.22;1.17;;;;;;;11.78;60.23;99824.19;5116006;28;20064;-67
2023/04/12 04:38:19;;;;;;;1.75;0.75;;;;;;;11.77;60.33;99828.78;5121040;28;20138;-66
2023/04/12 04:40:52;;;;;;;2.90;1.15;;;;;;;11.77;60.24;99825.22;5105372;28;20543;-67
2023/04/12 04:43:20;;;;;;;2.45;1.10;;;;;;;11.78;60.11;99822.31;5115609;28;20044;-67
2023/04/12 04:45:48;;;;;;;3.00;0.80;;;;;;;11.76;60.04;99810.97;5112198;28;20114;-66
2023/04/12 04:48:17;;;;;;;1.17;0.85;;;;;;;11.77;60.08;99819.84;5117727;28;20551;-66
2023/04/12 04:50:47;;;;;;;2.03;0.90;;;;;;;11.77;59.90;99815.31;5117511;28;20047;-67
2023/04/12 04:53:17;;;;;;;2.92;1.55;;;;;;;11.76;60.08;99813.66;5119476;28;20050;-67
2023/04/12 04:55:46;;;;;;;3.35;1.15;;;;;;;11.77;60.01;99809.09;5112734;28;20071;-65
2023/04/12 04:58:15;;;;;;;3.45;1.15;;;;;;;11.76;60.36;99808.28;5115374;28;20048;-65
2023/04/12 05:00:44;;;;;;;1.38;0.70;;;;;;;11.80;60.01;99811.28;5116322;28;20121;-66
2023/04/12 05:03:12;;;;;;;2.47;0.80;;;;;;;11.80;60.01;99808.59;5116405;28;20043;-66
2023/04/12 05:05:40;;;;;;;2.50;0.98;;;;;;;11.76;60.18;99797.50;5113997;28;20035;-65
2023/04/12 05:08:09;;;;;;;3.40;1.13;;;;;;;11.82;59.90;99806.47;5116750;28;20645;-67
2023/04/12 05:10:37;;;;;;;1.40;0.60;;;;;;;11.77;60.17;99799.16;5119531;28;20138;-65
2023/04/12 05:13:05;;;;;;;2.92;1.08;;;;;;;11.74;60.06;99794.25;5116769;28;20047;-66
2023/04/12 05:15:32;;;;;;;4.47;0.95;;;;;;;11.76;60.29;99792.13;5114871;28;20050;-68
2023/04/12 05:18:00;;;;;;;2.50;1.08;;;;;;;11.83;60.64;99786.56;5118767;28;20043;-67
2023/04/12 05:20:28;;;;;;;4.82;0.93;;;;;;;11.79;60.69;99797.03;5116195;28;20070;-70
2023/04/12 05:22:56;;;;;;;3.03;0.60;;;;;;;11.78;60.35;99781.13;5116504;28;20130;-68
2023/04/12 05:25:25;;;;;;;1.00;0.77;;;;;;;11.78;60.47;99787.31;5117364;28;20103;-68
2023/04/12 05:27:53;;;;;;;1.95;0.77;;;;;;;11.77;60.51;99780.31;5117243;28;20519;-69
2023/04/12 05:30:20;;;;;;;1.95;1.13;;;;;;;11.74;60.45;99789.69;4756500;28;10000047;-66
2023/04/12 05:32:48;;;;;;;2.50;0.82;;;;;;;11.71;60.68;99779.44;5113648;28;20127;-65
2023/04/12 05:35:16;;;;;;;1.42;0.70;;;;;;;11.70;60.70;99780.50;5116585;28;20115;-69
2023/04/12 05:37:44;;;;;;;2.70;0.80;;;;;;;11.69;60.82;99783.44;5115592;28;20204;-68
2023/04/12 05:40:12;;;;;;;1.38;0.75;;;;;;;11.67;60.63;99778.31;5117025;28;20066;-68
2023/04/12 05:42:41;;;;;;;2.45;0.82;;;;;;;11.67;60.55;99769.44;5110755;28;20090;-68
2023/04/12 05:45:10;;;;;;;1.60;0.90;;;;;;;11.66;60.39;99779.38;5114776;28;20050;-68
2023/04/12 05:47:38;;;;;;;1.73;0.82;;;;;;;11.67;60.50;99774.81;5115610;28;20618;-66
2023/04/12 05:50:07;;;;;;;1.85;1.10;;;;;;;11.65;61.12;99783.13;5115791;28;20058;-65
2023/04/12 05:52:36;;;;;;;1.27;0.80;;;;;;;11.63;61.73;99782.59;5105343;28;20205;-67
2023/04/12 05:55:05;;;;;;;2.58;1.50;;;;;;;11.63;61.61;99782.59;5115749;28;20044;-66
2023/04/12 05:57:32;;;;;;;2.65;1.00;;;;;;;11.56;61.33;99765.00;5111153;28;20066;-66
2023/04/12 06:00:07;;;;;;;1.38;0.85;;;;;;;11.65;61.01;99782.31;5116337;28;20267;-66
2023/04/12 06:02:35;;;;;;;4.65;1.00;;;;;;;11.69;61.68;99786.13;5112727;28;20043;-67
2023/04/12 06:05:04;;;;;;;1.75;0.82;;;;;;;11.69;60.91;99773.50;5111289;28;20075;-67
2023/04/12 06:07:32;;;;;;;1.13;0.70;;;;;;;11.64;61.12;99759.97;5115651;28;20040;-67
2023/04/12 06:10:00;;;;;;;1.50;0.82;;;;;;;11.69;61.13;99769.97;5118980;28;20062;-66
2023/04/12 06:12:28;;;;;;;2.75;1.00;;;;;;;11.68;61.02;99763.78;5104488;28;20360;-66
2023/04/12 06:14:55;;;;;;;1.05;0.90;;;;;;;11.68;61.44;99761.09;5118042;28;20048;-66
2023/04/12 06:17:24;;;;;;;4.05;0.90;;;;;;;11.71;61.36;99754.38;5111878;28;20107;-66
2023/04/12 06:19:53;;;;;;;2.63;0.93;;;;;;;11.70;61.13;99758.16;5120991;28;20039;-66
2023/04/12 06:22:21;;;;;;;1.83;0.85;;;;;;;11.72;61.59;99758.72;5122262;28;20389;-66
2023/04/12 06:24:49;;;;;;;2.20;0.90;;;;;;;11.71;61.34;99757.09;5114361;28;20489;-66
2023/04/12 06:27:19;;;;;;;2.05;0.90;;;;;;;11.70;61.53;99752.78;5122744;28;20055;-67
2023/04/12 06:29:47;;;;;;;1.23;0.45;;;;;;;11.68;61.39;99755.72;5118704;28;20139;-67
2023/04/12 06:32:14;;;;;;;2.15;0.80;;;;;;;11.68;61.26;99749.53;5122776;28;20043;-67
2023/04/12 06:34:43;;;;;;;1.45;0.88;;;;;;;11.66;61.46;99744.38;5110806;28;20048;-67
2023/04/12 06:37:11;;;;;;;2.90;1.17;;;;;;;11.65;61.46;99744.66;5120281;28;20108;-67
2023/04/12 06:39:39;;;;;;;3.63;0.90;;;;;;;11.65;61.47;99750.03;5123630;28;20071;-67
2023/04/12 06:42:07;;;;;;;2.83;0.95;;;;;;;11.64;61.68;99730.38;5120993;28;20147;-67
2023/04/12 06:44:35;;;;;;;2.13;1.05;;;;;;;11.64;61.48;99735.75;5122181;28;20074;-63
2023/04/12 06:47:02;;;;;;;2.95;0.80;;;;;;;11.64;61.45;99734.94;5120462;28;20040;-67
2023/04/12 06:49:30;;;;;;;1.33;0.70;;;;;;;11.63;61.46;99730.63;5117410;28;20056;-64
2023/04/12 06:51:59;;;;;;;1.48;0.80;;;;;;;11.62;61.49;99742.47;5117713;28;20044;-65
2023/04/12 06:54:27;;;;;;;1.08;0.80;;;;;;;11.61;61.51;99738.16;5123792;28;20130;-66
2023/04/12 06:56:56;;;;;;;1.95;0.90;;;;;;;11.59;61.67;99735.72;5114121;28;20103;-65
2023/04/12 06:59:24;;;;;;;1.65;0.90;;;;;;;11.60;61.62;99740.03;5121006;28;20092;-66
2023/04/12 07:01:51;;;;;;;2.17;0.80;;;;;;;11.60;61.75;99734.66;5121737;28;20130;-66
2023/04/12 07:04:19;;;;;;;1.20;0.70;;;;;;;11.59;61.51;99738.41;5118931;28;20044;-65
2023/04/12 07:06:47;;;;;;;0.88;0.82;;;;;;;11.57;61.59;99740.53;5121392;28;20049;-66
2023/04/12 07:09:16;;;;;;;2.42;0.82;;;;;;;11.48;61.90;99728.63;5119684;27;20104;-65
2023/04/12 07:11:44;;;;;;;1.77;0.90;;;;;;;11.54;62.15;99749.13;5117316;28;20058;-66
2023/04/12 07:14:12;;;;;;;2.88;1.00;;;;;;;11.54;62.99;99745.63;5122562;28;20469;-65
2023/04/12 07:16:40;;;;;;;1.83;0.88;;;;;;;11.51;62.33;99741.56;5121625;28;20054;-65
2023/04/12 07:19:07;;;;;;;1.90;0.90;;;;;;;11.54;62.31;99746.44;5120927;28;20071;-65
2023/04/12 07:21:35;;;;;;;1.48;0.80;;;;;;;11.53;62.56;99744.81;5121717;28;20066;-65
2023/04/12 07:24:03;;;;;;;1.23;0.63;;;;;;;11.53;62.59;99749.38;5118899;28;20047;-66
2023/04/12 07:26:32;;;;;;;3.58;1.25;;;;;;;11.53;62.65;99754.75;5119546;28;20052;-65
2023/04/12 07:29:00;;;;;;;0.90;0.70;;;;;;;11.52;62.64;99753.94;5116190;28;20051;-64
2023/04/12 07:31:29;;;;;;;2.45;0.75;;;;;;;11.53;62.84;99746.69;5115957;27;20044;-65
2023/04/12 07:33:57;;;;;;;4.70;1.05;;;;;;;11.51;63.24;99757.72;5114242;27;20048;-64
2023/04/12 07:36:26;;;;;;;1.75;0.88;;;;;;;11.44;63.00;99740.16;5120743;28;20046;-64
2023/04/12 07:38:55;;;;;;;1.40;0.85;;;;;;;11.52;62.96;99742.38;5115461;28;20073;-64
2023/04/12 07:41:23;;;;;;;1.98;0.93;;;;;;;11.50;63.45;99750.69;5116366;28;20513;-64
2023/04/12 07:43:52;;;;;;;4.78;1.02;;;;;;;11.51;63.48;99738.06;5119647;28;20043;-65
2023/04/12 07:46:20;;;;;;;5.25;2.10;;;;;;;11.51;63.26;99730.81;5118399;28;20186;-65
2023/04/12 07:48:48;;;;;;;2.08;1.08;;;;;;;11.50;63.14;99722.97;5115840;28;20047;-65
2023/04/12 07:51:16;;;;;;;4.13;1.20;;;;;;;11.51;63.67;99730.00;5114794;28;20044;-65
2023/04/12 07:53:47;;;;;;;2.67;1.00;;;;;;;11.52;63.58;99729.72;5113862;28;20480;-63
2023/04/12 07:56:15;;;;;;;3.47;1.05;;;;;;;11.51;63.13;99730.00;5119574;28;20066;-65
2023/04/12 07:58:43;;;;;;;3.60;1.27;;;;;;;11.50;63.56;99734.56;5113613;28;20332;-65
2023/04/12 08:01:13;;;;;;;2.58;0.98;;;;;;;11.51;63.50;99755.00;5117942;28;20478;-65
2023/04/12 08:03:40;;;;;;;3.80;1.35;;;;;;;11.52;63.42;99745.06;5120094;28;20078;-65
2023/04/12 08:06:09;;;;;;;2.95;0.93;;;;;;;11.52;63.21;99739.69;5118041;28;20044;-66
2023/04/12 08:08:37;;;;;;;4.30;1.10;;;;;;;11.53;63.29;99741.31;5119011;28;20124;-66
2023/04/12 08:11:05;;;;;;;1.38;0.90;;;;;;;11.52;63.25;99745.88;5109181;28;20047;-65
2023/04/12 08:13:34;;;;;;;2.55;1.10;;;;;;;11.62;62.97;99748.66;5117634;28;20040;-66
2023/04/12 08:16:02;;;;;;;1.90;1.17;;;;;;;11.70;62.63;99731.22;5120495;28;20307;-65
2023/04/12 08:18:31;;;;;;;4.25;1.48;;;;;;;11.96;61.75;99748.44;5110993;28;20071;-65
2023/04/12 08:20:59;;;;;;;4.03;1.33;;;;;;;12.13;61.56;99756.38;5119981;28;20093;-65
2023/04/12 08:23:26;;;;;;;2.55;1.02;;;;;;;12.31;61.04;99758.63;5120650;28;20136;-68
2023/04/12 08:26:01;;;;;;;3.05;1.48;;;;;;;12.46;60.33;99747.94;5119424;28;20108;-64
2023/04/12 08:28:30;;;;;;;2.78;1.38;;;;;;;12.65;60.09;99754.50;5116779;28;20115;-65
2023/04/12 08:30:58;;;;;;;2.63;1.60;;;;;;;12.79;60.02;99760.22;5107362;28;20060;-66
2023/04/12 08:33:26;;;;;;;3.55;1.58;;;;;;;12.92;59.88;99757.06;5118029;28;20044;-70
2023/04/12 08:35:55;;;;;;;3.80;1.77;;;;;;;13.08;59.20;99760.63;5120146;28;20131;-65
2023/04/12 08:38:23;;;;;;;3.28;1.60;;;;;;;13.20;58.15;99755.84;5115508;28;20051;-65
2023/04/12 08:41:11;;;;;;;2.95;1.45;;;;;;;13.31;58.58;99751.28;5120024;28;20036;-64
2023/04/12 08:43:44;;;;;;;5.00;1.30;;;;;;;13.43;57.71;99746.44;5113314;28;20078;-64
2023/04/12 08:46:14;;;;;;;5.32;1.88;;;;;;;13.48;57.96;99738.34;5117886;28;20044;-64
2023/04/12 08:48:45;;;;;;;3.30;1.70;;;;;;;13.54;57.87;99737.28;5120781;28;20079;-64
2023/04/12 08:51:16;;;;;;;6.70;1.75;;;;;;;13.56;57.58;99737.00;5115433;28;20043;-64
2023/04/12 08:53:44;;;;;;;4.95;2.47;;;;;;;13.61;58.06;99745.13;5120594;28;20142;-62
2023/04/12 08:56:13;;;;;;;6.25;1.85;;;;;;;13.62;57.71;99735.94;5114294;28;20464;-62
2023/04/12 08:58:44;;;;;;;4.30;2.10;;;;;;;13.61;57.95;99731.63;5115797;28;20043;-62
2023/04/12 09:01:14;;;;;;;7.85;2.50;;;;;;;13.58;58.13;99735.66;5117740;28;20048;-61
2023/04/12 09:03:43;;;;;;;6.50;2.13;;;;;;;13.50;58.63;99738.09;4757899;28;10000317;-62
2023/04/12 09:06:11;;;;;;;6.75;2.60;;;;;;;13.30;59.40;99746.94;5113605;28;20058;-62
2023/04/12 09:08:53;;;;;;;7.88;2.38;;;;;;;13.09;59.45;99742.53;5114458;28;20062;-62
2023/04/12 09:11:25;;;;;;;6.28;2.53;;;;;;;12.93;60.15;99741.69;5111053;28;20130;-62
2023/04/12 09:13:54;;;;;;;10.88;2.78;;;;;;;12.80;60.44;99737.59;5115904;28;20047;-61
2023/04/12 09:16:35;;;;;;;10.52;2.88;;;;;;;12.61;61.45;99706.78;5113717;28;20078;-64
2023/04/12 09:19:04;;;;;;;9.38;2.58;;;;;;;12.60;61.26;99722.13;5114505;28;20051;-61
2023/04/12 09:21:33;;;;;;;8.02;2.88;;;;;;;12.56;61.78;99725.63;5116050;28;20039;-62
2023/04/12 09:24:09;;;;;;;6.38;2.88;;;;;;;12.50;62.04;99721.28;5116565;28;20074;-64
2023/04/12 09:26:41;;;;;;;11.82;2.97;;;;;;;12.47;62.00;99722.59;5115626;28;20047;-64
2023/04/12 09:29:23;;;;;;;8.40;2.90;;;;;;;12.45;62.17;99716.66;5115601;28;20123;-64
2023/04/12 09:32:01;;;;;;;8.07;2.80;;;;;;;12.43;61.83;99718.00;5116736;28;20047;-63
2023/04/12 09:34:30;;;;;;;9.88;2.65;;;;;;;12.42;62.46;99716.38;5112461;28;20039;-62
2023/04/12 09:36:58;;;;;;;11.57;4.00;;;;;;;12.41;62.35;99722.84;5114299;28;20052;-63
2023/04/12 09:39:34;;;;;;;7.25;2.85;;;;;;;12.38;62.46;99725.00;5116091;28;20112;-62
2023/04/12 09:42:06;;;;;;;8.23;3.20;;;;;;;12.37;62.57;99727.94;5107955;28;20449;-63
2023/04/12 09:44:52;;;;;;;12.52;4.25;;;;;;;12.36;62.45;99710.97;5115536;28;20040;-63
2023/04/12 09:47:19;;;;;;;7.25;3.20;;;;;;;12.34;62.24;99710.41;5116992;28;20119;-64
2023/04/12 09:49:47;;;;;;;11.50;3.22;;;;;;;12.35;62.23;99701.25;5113632;28;20052;-69
2023/04/12 09:52:15;;;;;;;17.02;3.75;;;;;;;12.35;62.27;99701.25;5110351;28;20393;-63
2023/04/12 09:54:46;;;;;;;11.23;4.45;;;;;;;12.36;61.94;99708.28;5117274;28;20074;-62
2023/04/12 09:57:17;;;;;;;8.85;2.88;;;;;;;12.34;62.30;99704.22;5114079;28;20071;-63
2023/04/12 09:59:48;;;;;;;10.82;3.60;;;;;;;12.35;62.49;99697.75;5117226;28;20158;-62
2023/04/12 10:02:19;;;;;;;13.73;3.78;;;;;;;12.34;62.19;99683.47;5116808;28;20048;-62
2023/04/12 10:04:48;;;;;;;13.38;4.00;;;;;;;12.34;62.21;99690.75;5111499;28;20055;-62
2023/04/12 10:07:18;;;;;;;10.52;3.67;;;;;;;12.34;62.00;99688.06;5118707;28;20066;-62
2023/04/12 10:09:47;;;;;;;14.35;3.22;;;;;;;12.35;61.85;99701.25;5115636;28;20443;-62
2023/04/12 10:12:15;;;;;;;16.95;4.28;;;;;;;12.34;61.95;99710.41;5120397;28;20062;-62
2023/04/12 10:14:44;;;;;;;15.98;3.78;;;;;;;12.35;62.15;99714.72;5116905;28;20193;-63
2023/04/12 10:17:13;;;;;;;14.60;3.78;;;;;;;12.36;61.77;99721.75;5119248;28;20061;-65
2023/04/12 10:19:43;;;;;;;12.23;4.72;;;;;;;12.35;61.16;99708.53;5117728;28;20083;-63
2023/04/12 10:22:11;;;;;;;14.35;3.55;;;;;;;12.33;61.00;99703.41;5109311;28;20138;-63
2023/04/12 10:24:39;;;;;;;19.40;3.97;;;;;;;12.33;61.14;99711.50;5095443;28;20060;-63
2023/04/12 10:27:09;;;;;;;18.92;4.90;;;;;;;12.34;61.00;99709.59;5098519;28;20052;-62
2023/04/12 10:29:38;;;;;;;15.50;3.80;;;;;;;12.32;60.80;99709.06;5097755;28;20059;-60
2023/04/12 10:32:20;;;;;;;12.32;3.42;;;;;;;12.32;60.75;99714.44;5099421;28;20052;-62
2023/04/12 10:34:52;;;;;;;12.48;5.00;;;;;;;12.30;60.92;99717.41;5099142;28;20051;-64
2023/04/12 10:37:20;;;;;;;16.13;3.83;;;;;;;12.26;60.50;99720.88;5095830;28;20048;-66
2023/04/12 10:39:53;;;;;;;21.30;4.78;;;;;;;12.20;60.96;99711.94;5094939;28;20539;-63
2023/04/12 10:42:26;;;;;;;20.25;5.07;;;;;;;12.25;60.54;99717.38;5099148;28;20430;-63
2023/04/12 10:44:56;;;;;;;16.30;5.22;;;;;;;12.26;60.52;99720.88;5093610;28;20098;-63
2023/04/12 10:48:05;;;;;;;16.92;4.75;;;;;;;12.27;60.52;99727.88;5100048;28;20078;-63
2023/04/12 10:50:34;;;;;;;14.02;4.03;;;;;;;12.28;60.62;99726.81;5094299;28;20409;-63
2023/04/12 10:53:21;;;;;;;21.50;4.55;;;;;;;12.31;60.48;99742.47;5098371;28;20056;-62
2023/04/12 10:55:49;;;;;;;13.10;4.18;;;;;;;12.31;60.05;99740.56;5094498;28;20043;-62
2023/04/12 10:58:56;;;;;;;13.90;4.45;;;;;;;12.28;60.30;99738.41;5092899;28;20531;-63
2023/04/12 11:01:25;;;;;;;;;;;;;;;12.28;60.23;99746.47;5095605;28;20048;-62
2023/04/12 11:04:08;;;;;;;17.85;4.38;;;;;;;12.26;60.53;99743.22;5094029;28;20339;-62
2023/04/12 11:07:00;;;;;;;15.35;4.57;;;;;;;12.24;60.29;99740.00;5097849;28;20066;-62
2023/04/12 11:09:29;;;;;;;11.70;4.00;;;;;;;12.26;60.45;99751.31;5088757;28;20040;-62
2023/04/12 11:11:59;;;;;;;15.18;4.57;;;;;;;12.26;60.50;99750.50;5097892;28;20067;-62
2023/04/12 11:14:36;;;;;;;9.70;3.70;;;;;;;12.25;60.66;99755.09;5090668;28;20072;-63
2023/04/12 11:17:21;;;;;;;13.52;3.88;;;;;;;12.29;60.36;99752.69;5098275;28;20154;-63
2023/04/12 11:19:55;;;;;;;9.80;3.63;;;;;;;12.30;60.83;99763.19;5095845;28;20054;-62
2023/04/12 11:22:26;;;;;;;15.30;3.92;;;;;;;12.32;60.82;99765.63;5098162;28;20052;-62
2023/04/12 11:24:55;;;;;;;16.75;4.00;;;;;;;12.39;60.34;99758.13;5114892;28;20059;-62
2023/04/12 11:27:25;;;;;;;13.98;4.10;;;;;;;12.62;60.03;99762.31;5118864;28;20048;-62
2023/04/12 11:29:55;;;;;;;15.23;4.28;;;;;;;12.79;59.49;99754.84;5115554;28;20078;-62
2023/04/12 11:32:25;;;;;;;15.00;4.13;;;;;;;12.95;59.14;99744.94;5119698;28;20052;-62
2023/04/12 11:34:55;;;;;;;10.77;3.17;;;;;;;13.13;58.61;99744.44;5115893;28;20054;-62
2023/04/12 11:37:25;;;;;;;11.95;3.97;;;;;;;13.37;58.36;99749.41;5118901;28;20134;-62
2023/04/12 11:39:57;;;;;;;11.38;3.22;;;;;;;13.55;57.90;99744.28;5111976;28;20089;-62
2023/04/12 11:42:27;;;;;;;11.48;3.83;;;;;;;13.67;57.23;99741.34;5117363;28;20201;-62